createdAt,value
2018-09-11T00:00:03.525Z,53.40
2018-09-11T00:04:54.452Z,53.40
2018-09-11T00:09:45.373Z,53.40
2018-09-11T00:14:36.277Z,53.40
2018-09-11T00:19:27.185Z,53.50
2018-09-11T00:24:18.091Z,53.40
2018-09-11T00:29:09.005Z,53.50
2018-09-11T00:34:00.664Z,53.50
2018-09-11T00:38:51.577Z,53.50
2018-09-11T00:43:42.497Z,53.60
2018-09-11T00:48:33.424Z,53.60
2018-09-11T00:53:24.334Z,53.50
2018-09-11T00:58:16.742Z,53.60
2018-09-11T01:03:07.668Z,53.60
2018-09-11T01:07:58.568Z,53.70
2018-09-11T01:12:49.472Z,53.70
2018-09-11T01:17:40.373Z,54.30
2018-09-11T01:22:31.263Z,53.70
2018-09-11T01:27:22.911Z,53.80
2018-09-11T01:32:13.847Z,53.60
2018-09-11T01:37:05.491Z,53.80
2018-09-11T01:41:56.507Z,53.70
2018-09-11T01:46:47.407Z,53.80
2018-09-11T01:51:38.327Z,53.70
2018-09-11T01:56:30.003Z,53.90
2018-09-11T02:01:21.693Z,53.80
2018-09-11T02:06:12.565Z,53.70
2018-09-11T02:11:04.220Z,53.90
2018-09-11T02:15:55.136Z,53.90
2018-09-11T02:20:46.067Z,53.90
2018-09-11T02:25:37.014Z,54.00
2018-09-11T02:30:27.926Z,54.00
2018-09-11T02:35:18.836Z,54.10
2018-09-11T02:40:09.736Z,54.10
2018-09-11T02:45:00.637Z,54.10
2018-09-11T02:49:51.542Z,54.10
2018-09-11T02:54:42.441Z,54.10
2018-09-11T02:59:33.343Z,54.20
2018-09-11T03:04:24.994Z,54.20
2018-09-11T03:09:15.920Z,54.20
2018-09-11T03:14:06.828Z,54.30
2018-09-11T03:18:57.789Z,54.30
2018-09-11T03:23:49.399Z,54.50
2018-09-11T03:28:40.309Z,54.40
2018-09-11T03:33:31.994Z,54.40
2018-09-11T03:38:22.926Z,54.40
2018-09-11T03:43:13.828Z,54.50
2018-09-11T03:48:05.477Z,54.50
2018-09-11T03:52:56.396Z,54.40
2018-09-11T03:57:47.319Z,54.60
2018-09-11T04:02:38.238Z,54.50
2018-09-11T04:07:29.162Z,54.50
2018-09-11T04:12:20.080Z,54.60
2018-09-11T04:17:11.001Z,54.60
2018-09-11T04:22:02.691Z,55.30
2018-09-11T04:26:54.350Z,54.60
2018-09-11T04:31:46.044Z,54.70
2018-09-11T04:36:36.987Z,54.60
2018-09-11T04:41:27.916Z,54.70
2018-09-11T04:46:18.858Z,54.60
2018-09-11T04:51:10.570Z,54.90
2018-09-11T04:56:01.490Z,54.70
2018-09-11T05:00:52.419Z,55.40
2018-09-11T05:05:43.336Z,55.50
2018-09-11T05:10:34.279Z,56.30
2018-09-11T05:15:25.188Z,56.70
2018-09-11T05:20:16.877Z,57.00
2018-09-11T05:25:08.521Z,57.50
2018-09-11T05:29:59.436Z,57.50
2018-09-11T05:34:51.085Z,57.80
2018-09-11T05:39:42.010Z,57.80
2018-09-11T05:44:32.909Z,57.80
2018-09-11T05:49:24.604Z,58.30
2018-09-11T05:54:15.628Z,58.40
2018-09-11T05:59:06.563Z,57.70
2018-09-11T06:03:58.205Z,58.10
2018-09-11T06:08:49.100Z,57.90
2018-09-11T06:13:40.744Z,57.80
2018-09-11T06:18:31.652Z,57.80
2018-09-11T06:23:22.556Z,57.80
2018-09-11T06:28:13.482Z,57.80
2018-09-11T06:33:05.141Z,58.90
2018-09-11T06:37:56.075Z,58.40
2018-09-11T06:42:46.993Z,58.30
2018-09-11T06:47:37.896Z,58.10
2018-09-11T06:52:28.814Z,57.80
2018-09-11T06:57:19.741Z,57.80
2018-09-11T07:02:10.656Z,57.70
2018-09-11T07:07:03.051Z,57.40
2018-09-11T07:11:53.991Z,57.50
2018-09-11T07:16:44.921Z,57.30
2018-09-11T07:21:35.927Z,57.20
2018-09-11T07:26:27.583Z,57.20
2018-09-11T07:31:18.555Z,57.10
2018-09-11T07:36:09.463Z,57.10
2018-09-11T07:41:00.372Z,57.00
2018-09-11T07:45:51.281Z,56.80
2018-09-11T07:50:42.945Z,56.80
2018-09-11T07:55:33.891Z,56.80
2018-09-11T08:00:24.830Z,57.10
2018-09-11T08:05:15.819Z,56.70
2018-09-11T08:10:06.708Z,56.70
2018-09-11T08:14:57.630Z,56.60
2018-09-11T08:19:48.592Z,57.20
2018-09-11T08:24:40.217Z,56.60
2018-09-11T08:29:31.224Z,56.50
2018-09-11T08:34:22.061Z,56.50
2018-09-11T08:39:14.867Z,56.40
2018-09-11T08:44:06.513Z,56.70
2018-09-11T08:48:57.424Z,56.20
2018-09-11T08:53:48.344Z,56.30
2018-09-11T08:58:39.338Z,56.20
2018-09-11T09:03:30.922Z,56.00
2018-09-11T09:08:21.857Z,55.90
2018-09-11T09:13:12.788Z,55.90
2018-09-11T09:18:04.441Z,56.00
2018-09-11T09:22:55.382Z,55.60
2018-09-11T09:27:46.314Z,55.60
2018-09-11T09:32:37.988Z,55.40
2018-09-11T09:37:28.904Z,55.40
2018-09-11T09:42:19.837Z,55.00
2018-09-11T09:47:11.508Z,54.90
2018-09-11T09:52:03.164Z,54.40
2018-09-11T09:56:54.103Z,54.60
2018-09-11T10:01:45.105Z,54.50
2018-09-11T10:06:36.012Z,54.60
2018-09-11T10:11:27.737Z,54.10
2018-09-11T10:16:18.660Z,54.00
2018-09-11T10:21:10.304Z,54.00
2018-09-11T10:26:01.228Z,54.00
2018-09-11T10:30:52.140Z,53.70
2018-09-11T10:35:43.040Z,53.20
2018-09-11T10:40:34.688Z,52.40
2018-09-11T10:45:25.608Z,52.30
2018-09-11T10:50:16.527Z,52.30
2018-09-11T10:55:07.489Z,50.60
2018-09-11T10:59:58.413Z,51.20
2018-09-11T11:04:49.324Z,51.30
2018-09-11T11:09:40.266Z,50.90
2018-09-11T11:14:31.180Z,50.50
2018-09-11T11:19:22.088Z,50.40
2018-09-11T11:24:13.083Z,50.40
2018-09-11T11:29:04.003Z,50.10
2018-09-11T11:33:55.673Z,49.70
2018-09-11T11:38:46.577Z,49.70
2018-09-11T11:43:38.072Z,49.40
2018-09-11T11:48:29.714Z,49.30
2018-09-11T11:53:21.543Z,48.70
2018-09-11T11:58:12.464Z,48.70
2018-09-11T12:03:04.140Z,48.30
2018-09-11T12:07:55.092Z,48.20
2018-09-11T12:12:45.983Z,48.40
2018-09-11T12:17:37.681Z,48.50
2018-09-11T12:22:29.340Z,48.20
2018-09-11T12:27:20.248Z,48.20
2018-09-11T12:32:11.156Z,49.00
2018-09-11T12:37:02.180Z,48.10
2018-09-11T12:41:53.072Z,48.40
2018-09-11T12:46:44.160Z,47.00
2018-09-11T12:51:35.645Z,46.50
2018-09-11T12:56:26.543Z,46.40
2018-09-11T13:01:18.192Z,46.20
2018-09-11T13:06:09.112Z,46.20
2018-09-11T13:11:00.089Z,45.90
2018-09-11T13:15:50.992Z,45.10
2018-09-11T13:20:42.086Z,45.50
2018-09-11T13:25:33.100Z,45.50
2018-09-11T13:30:24.021Z,45.60
2018-09-11T13:35:14.972Z,45.20
2018-09-11T13:40:05.884Z,44.60
2018-09-11T13:44:57.573Z,45.00
2018-09-11T13:49:49.222Z,45.50
2018-09-11T13:54:40.144Z,45.50
2018-09-11T13:59:31.678Z,45.60
2018-09-11T14:04:22.609Z,45.60
2018-09-11T14:09:13.553Z,45.70
2018-09-11T14:14:04.497Z,45.60
2018-09-11T14:18:56.161Z,45.10
2018-09-11T14:23:47.091Z,45.10
2018-09-11T14:28:38.017Z,45.30
2018-09-11T14:33:29.677Z,45.10
2018-09-11T14:38:20.608Z,45.10
2018-09-11T14:43:11.542Z,45.20
2018-09-11T14:48:03.213Z,45.90
2018-09-11T14:52:54.160Z,45.90
2018-09-11T14:57:45.068Z,46.20
2018-09-11T15:02:36.800Z,46.50
2018-09-11T15:07:27.808Z,46.40
2018-09-11T15:12:18.738Z,46.50
2018-09-11T15:17:09.644Z,46.50
2018-09-11T15:22:00.666Z,46.50
2018-09-11T15:26:51.587Z,46.20
2018-09-11T15:31:42.499Z,46.20
2018-09-11T15:36:34.182Z,45.80
2018-09-11T15:41:25.826Z,46.00
2018-09-11T15:46:16.744Z,46.00
2018-09-11T15:51:08.445Z,45.10
2018-09-11T15:55:59.415Z,45.00
2018-09-11T16:00:50.359Z,45.00
2018-09-11T16:05:42.014Z,45.10
2018-09-11T16:10:32.921Z,45.00
2018-09-11T16:15:24.635Z,45.00
2018-09-11T16:20:15.538Z,44.90
2018-09-11T16:25:06.468Z,44.70
2018-09-11T16:29:57.476Z,45.00
2018-09-11T16:34:48.367Z,45.70
2018-09-11T16:39:40.761Z,46.30
2018-09-11T16:44:31.669Z,46.30
2018-09-11T16:49:23.358Z,47.20
2018-09-11T16:54:14.268Z,47.10
2018-09-11T16:59:05.181Z,47.40
2018-09-11T17:03:56.856Z,48.10
2018-09-11T17:08:48.541Z,48.30
2018-09-11T17:13:39.455Z,48.30
2018-09-11T17:18:30.409Z,48.40
2018-09-11T17:23:21.328Z,48.60
2018-09-11T17:28:12.249Z,48.90
2018-09-11T17:33:03.183Z,49.10
2018-09-11T17:37:54.831Z,49.30
2018-09-11T17:42:45.843Z,49.20
2018-09-11T17:47:37.518Z,49.40
2018-09-11T17:52:28.440Z,49.40
2018-09-11T17:57:19.354Z,49.40
2018-09-11T18:02:10.270Z,49.50
2018-09-11T18:07:01.177Z,49.40
2018-09-11T18:11:52.111Z,49.20
2018-09-11T18:16:43.084Z,49.30
2018-09-11T18:21:34.044Z,49.30
2018-09-11T18:26:25.036Z,49.30
2018-09-11T18:31:16.002Z,49.40
2018-09-11T18:36:07.290Z,49.50
2018-09-11T18:40:58.212Z,49.60
2018-09-11T18:45:49.879Z,49.60
2018-09-11T18:50:41.529Z,49.60
2018-09-11T18:55:32.476Z,49.40
2018-09-11T19:00:23.381Z,49.40
2018-09-11T19:05:14.340Z,49.30
2018-09-11T19:10:05.283Z,49.60
2018-09-11T19:14:56.234Z,49.40
2018-09-11T19:19:47.175Z,49.00
2018-09-11T19:24:39.562Z,49.30
2018-09-11T19:29:30.475Z,49.20
2018-09-11T19:34:21.377Z,50.20
2018-09-11T19:39:12.298Z,49.80
2018-09-11T19:44:03.962Z,50.10
2018-09-11T19:48:54.867Z,50.10
2018-09-11T19:53:45.817Z,50.20
2018-09-11T19:58:37.493Z,50.30
2018-09-11T20:03:29.140Z,50.50
2018-09-11T20:08:20.047Z,50.50
2018-09-11T20:13:11.711Z,50.60
2018-09-11T20:18:04.131Z,50.60
2018-09-11T20:22:55.912Z,50.70
2018-09-11T20:27:46.849Z,50.50
2018-09-11T20:32:37.776Z,50.70
2018-09-11T20:37:29.540Z,50.80
2018-09-11T20:42:20.478Z,50.70
2018-09-11T20:47:11.439Z,50.90
2018-09-11T20:52:02.374Z,50.80
2018-09-11T20:56:53.280Z,50.80
2018-09-11T21:01:44.200Z,50.80
2018-09-11T21:06:35.880Z,50.90
2018-09-11T21:11:27.525Z,51.00
2018-09-11T21:16:18.433Z,50.90
2018-09-11T21:21:10.149Z,51.10
2018-09-11T21:26:01.059Z,51.10
2018-09-11T21:30:52.016Z,51.20
2018-09-11T21:35:42.918Z,51.10
2018-09-11T21:40:34.584Z,51.10
2018-09-11T21:45:26.237Z,51.10
2018-09-11T21:50:17.193Z,51.10
2018-09-11T21:55:08.168Z,51.00
2018-09-11T21:59:59.107Z,51.00
2018-09-11T22:04:50.032Z,51.00
2018-09-11T22:09:40.951Z,51.10
2018-09-11T22:14:31.931Z,51.10
2018-09-11T22:19:22.885Z,51.00
2018-09-11T22:24:13.800Z,51.20
2018-09-11T22:29:04.744Z,51.20
2018-09-11T22:33:55.651Z,51.10
2018-09-11T22:38:46.683Z,51.40
2018-09-11T22:43:37.628Z,51.30
2018-09-11T22:48:28.553Z,51.30
2018-09-11T22:53:19.501Z,51.40
2018-09-11T22:58:10.419Z,51.50
2018-09-11T23:03:01.393Z,51.40
2018-09-11T23:07:52.386Z,51.50
2018-09-11T23:12:43.316Z,51.40
2018-09-11T23:17:34.967Z,51.50
2018-09-11T23:22:25.891Z,51.40
2018-09-11T23:27:16.807Z,51.50
2018-09-11T23:32:07.828Z,51.70
2018-09-11T23:36:58.776Z,51.60
2018-09-11T23:41:50.442Z,51.60
2018-09-11T23:46:42.139Z,52.10
2018-09-11T23:51:33.841Z,51.80
2018-09-11T23:56:24.750Z,51.70
